Airfield :
LOGIN :

Register | Disclaimer

   EN    FR    IT 

 










Legend :    VFR   Marginal VFR   IFR   Intensive IFR   Very Intensive IFR
Visi :
Ceiling :
>= 8 km
>= 3000ft
5 to 8 km
1000 to 3000 ft
1500m to 5 km
500 to 1000 ft
800 to 1500m
200 to 500 ft
< 800m
< 200 ft
Symbols :   Thunderstorms  Fog  Heavy snow  Heavy precipitations  Wind > 20 kt
SIGMETs :     Misc.  Thunderstorms  Icing  Turbulence  Mountain Waves  Volcanic Ashes






- Airport Elevation : 20 ft


EBFN - Koksijde

CURRENT METAR :
  • 252216Z AUTO 31024G37KT 9999 -RA BKN023/// 12/08 Q1001 WHT

EXPIRED METARs :
  • 252205Z AUTO 31026G45KT 2100 RA OVC023/// 11/08 Q1001 YLO
  • 252153Z AUTO 31029G43KT 2800 RA BKN026/// 11/08 Q1001 YLO
  • 252145Z AUTO 31030G44KT 4700 +DZ BKN032/// 11/08 Q1001 GRN
  • 252125Z AUTO 31029G43KT 9999 +RA OVC034/// 12/06 Q1001 BLU
  • 252055Z AUTO 31028G45KT 9999 OVC035/// 12/06 Q1001 BLU
  • 252025Z AUTO 31028G46KT 9999 BKN036/// 12/06 Q1001 BLU
  • 251955Z AUTO 31028G45KT 9999 -RA OVC031/// 12/06 Q1001 BLU
  • 251949Z AUTO 31026G41KT 4700 -RA BKN032/// 11/07 Q1001 GRN
  • 251943Z AUTO 31027G42KT 5000 +DZ BKN032/// 12/07 Q1001 WHT

TAF TAF EBFN
Valid from the 25 at 19:00 until the 26 at 07:00 UTC


251541Z 2519/2607 31020G30KT 9999 SCT018 BKN040
TEMPO 2519/2607 31025G40KT 6000 -SHRA SCT015 BKN030
TEMPO 2519/2607 31028G45KT 4000 SHRA SCT010 BKN014TCU
PROB30
TEMPO 2519/2607 31030G50KT 2000 TSRA SCT006 BKN012CB



MET'MAP, your aeronautical weather chart ! - Copyright ORBIFLY December 2007 - Disclaimer

ORBIFLY MET'MAP TEAM :

Programming & Development : Alexandra Zaïnal
Concept & original design : Baudouin d'Aumeries
Assistance for programming : Marc-Olivier Méhu
Technical & hardware support : Manuel Goepfert

Contact : metmap@orbifly.com




SOURCES & CREDITS :

   NOAA